createdAt,value
2022-08-22T00:00:18.404Z,43.04
2022-08-22T00:02:42.589Z,52.89
2022-08-22T00:02:52.480Z,54.01
2022-08-22T00:03:15.736Z,44.09
2022-08-22T00:03:17.346Z,43.37
2022-08-22T00:06:26.291Z,43.01
2022-08-22T00:09:03.182Z,44.17
2022-08-22T00:11:37.272Z,44.12
2022-08-22T00:14:31.117Z,43.44
2022-08-22T00:17:12.545Z,43.35
2022-08-22T00:19:49.725Z,43.03
2022-08-22T00:22:50.830Z,43.03
2022-08-22T00:25:47.946Z,43.22
2022-08-22T00:28:17.432Z,43.08
2022-08-22T00:30:58.607Z,43.24
2022-08-22T00:33:39.015Z,43.70
2022-08-22T00:36:16.158Z,43.62
2022-08-22T00:38:56.730Z,42.82
2022-08-22T00:41:48.019Z,43.81
2022-08-22T00:44:35.631Z,44.07
2022-08-22T00:47:19.815Z,44.11
2022-08-22T00:50:08.201Z,44.23
2022-08-22T00:52:49.957Z,44.38
2022-08-22T00:58:39.524Z,46.53
2022-08-22T01:01:11.555Z,45.68
2022-08-22T01:04:03.069Z,45.42
2022-08-22T01:06:47.609Z,44.38
2022-08-22T01:09:37.285Z,46.00
2022-08-22T01:12:31.569Z,46.02
2022-08-22T01:15:07.190Z,45.58
2022-08-22T01:18:00.224Z,45.52
2022-08-22T01:21:02.020Z,45.63
2022-08-22T01:23:59.673Z,45.44
2022-08-22T01:26:53.472Z,46.83
2022-08-22T01:29:28.483Z,46.97
2022-08-22T01:32:32.744Z,47.34
2022-08-22T01:35:21.009Z,48.91
2022-08-22T01:38:26.729Z,51.46
2022-08-22T01:41:10.377Z,51.67
2022-08-22T01:44:30.793Z,50.68
2022-08-22T01:47:08.616Z,50.31
2022-08-22T01:49:35.218Z,49.79
2022-08-22T01:52:07.294Z,49.43
2022-08-22T01:54:54.842Z,50.45
2022-08-22T01:57:24.688Z,49.79
2022-08-22T01:59:57.499Z,49.20
2022-08-22T02:02:29.812Z,48.21
2022-08-22T02:05:21.785Z,49.11
2022-08-22T02:07:54.296Z,47.82
2022-08-22T02:10:48.746Z,47.22
2022-08-22T02:13:43.280Z,48.76
2022-08-22T02:16:25.647Z,48.42
2022-08-22T02:19:15.275Z,48.06
2022-08-22T02:21:47.516Z,47.88
2022-08-22T02:24:28.664Z,48.10
2022-08-22T02:27:31.726Z,49.86
2022-08-22T02:30:07.530Z,49.36
2022-08-22T02:32:45.182Z,48.74
2022-08-22T02:35:27.259Z,48.71
2022-08-22T02:38:12.022Z,49.05
2022-08-22T02:40:48.248Z,48.31
2022-08-22T02:43:23.246Z,48.50
2022-08-22T02:46:03.196Z,49.87
2022-08-22T02:49:04.552Z,48.98
2022-08-22T02:51:45.762Z,49.79
2022-08-22T02:54:21.239Z,51.46
2022-08-22T02:56:50.704Z,49.51
2022-08-22T02:59:34.235Z,51.19
2022-08-22T03:02:33.799Z,51.48
2022-08-22T03:05:17.980Z,53.44
2022-08-22T03:08:03.068Z,52.63
2022-08-22T03:11:09.631Z,53.93
2022-08-22T03:13:59.053Z,53.45
2022-08-22T03:16:39.498Z,53.07
2022-08-22T03:19:18.432Z,50.84
2022-08-22T03:22:13.750Z,50.21
2022-08-22T03:24:55.453Z,51.50
2022-08-22T03:27:33.443Z,52.27
2022-08-22T03:30:30.889Z,50.30
2022-08-22T03:33:16.597Z,50.90
2022-08-22T03:35:46.138Z,52.27
2022-08-22T03:38:28.134Z,52.05
2022-08-22T03:41:12.780Z,52.31
2022-08-22T03:44:18.116Z,51.38
2022-08-22T03:47:06.291Z,54.28
2022-08-22T03:49:32.856Z,53.19
2022-08-22T03:52:18.426Z,52.21
2022-08-22T03:55:22.326Z,53.17
2022-08-22T03:58:27.654Z,53.81
2022-08-22T04:01:39.168Z,55.15
2022-08-22T04:04:27.950Z,54.92
2022-08-22T04:07:33.409Z,55.45
2022-08-22T04:10:28.139Z,54.83
2022-08-22T04:13:21.193Z,55.25
2022-08-22T04:16:25.329Z,55.94
2022-08-22T04:18:57.539Z,55.98
2022-08-22T04:21:38.214Z,56.33
2022-08-22T04:24:04.808Z,56.72
2022-08-22T04:26:42.784Z,57.49
2022-08-22T04:29:17.800Z,56.32
2022-08-22T04:31:57.686Z,55.13
2022-08-22T04:35:20.089Z,55.22
2022-08-22T04:37:55.595Z,53.89
2022-08-22T04:40:48.181Z,53.80
2022-08-22T04:43:34.024Z,54.11
2022-08-22T04:46:36.889Z,55.34
2022-08-22T04:49:40.236Z,54.31
2022-08-22T04:52:09.727Z,53.76
2022-08-22T04:55:02.686Z,54.45
2022-08-22T04:57:41.239Z,52.76
2022-08-22T05:00:10.596Z,52.91
2022-08-22T05:02:48.336Z,53.12
2022-08-22T05:05:24.096Z,53.39
2022-08-22T05:07:59.830Z,53.32
2022-08-22T05:10:35.996Z,52.51
2022-08-22T05:13:08.654Z,52.61
2022-08-22T05:15:44.144Z,53.84
2022-08-22T05:18:24.018Z,53.31
2022-08-22T05:21:01.441Z,54.81
2022-08-22T05:23:41.685Z,55.40
2022-08-22T05:26:12.334Z,55.19
2022-08-22T05:28:52.508Z,54.06
2022-08-22T05:31:41.533Z,53.13
2022-08-22T05:34:15.255Z,54.04
2022-08-22T05:36:54.006Z,53.85
2022-08-22T05:39:25.620Z,55.02
2022-08-22T05:41:58.391Z,54.42
2022-08-22T05:44:31.914Z,53.10
2022-08-22T05:47:04.567Z,53.91
2022-08-22T05:49:49.059Z,52.80
2022-08-22T05:52:27.010Z,53.15
2022-08-22T05:55:18.896Z,53.23
2022-08-22T05:58:13.102Z,53.26
2022-08-22T06:00:45.316Z,54.12
2022-08-22T06:03:30.657Z,53.93
2022-08-22T06:06:09.967Z,52.65
2022-08-22T06:08:43.612Z,53.03
2022-08-22T06:11:26.582Z,52.87
2022-08-22T06:14:29.783Z,51.76
2022-08-22T06:17:10.950Z,53.08
2022-08-22T06:19:45.662Z,51.65
2022-08-22T06:22:26.691Z,53.13
2022-08-22T06:25:00.146Z,51.05
2022-08-22T06:27:31.175Z,50.25
2022-08-22T06:30:03.334Z,49.72
2022-08-22T06:33:00.171Z,50.68
2022-08-22T06:35:35.998Z,50.71
2022-08-22T06:38:03.860Z,49.92
2022-08-22T06:40:30.682Z,50.77
2022-08-22T06:42:59.041Z,50.16
2022-08-22T06:45:30.831Z,50.60
2022-08-22T06:48:16.324Z,49.77
2022-08-22T06:50:47.726Z,49.59
2022-08-22T06:53:47.943Z,49.68
2022-08-22T06:56:26.339Z,48.35
2022-08-22T06:58:58.740Z,49.41
2022-08-22T07:01:33.699Z,49.65
2022-08-22T07:04:08.918Z,44.89
2022-08-22T07:06:40.544Z,42.33
2022-08-22T07:09:22.770Z,38.89
2022-08-22T07:11:53.384Z,37.01
2022-08-22T07:14:29.236Z,35.33
2022-08-22T07:17:00.958Z,35.73
2022-08-22T07:19:32.026Z,35.17
2022-08-22T07:22:09.522Z,33.67
2022-08-22T07:24:36.840Z,33.38
2022-08-22T07:27:17.613Z,31.78
2022-08-22T07:29:47.158Z,32.11
2022-08-22T07:32:18.807Z,31.41
2022-08-22T07:34:51.124Z,31.30
2022-08-22T07:37:25.806Z,31.26
2022-08-22T07:40:11.829Z,30.97
2022-08-22T07:43:15.564Z,31.48
2022-08-22T07:45:57.049Z,31.87
2022-08-22T07:48:59.516Z,31.20
2022-08-22T07:51:53.862Z,31.82
2022-08-22T07:54:39.793Z,31.55
2022-08-22T07:57:13.989Z,31.27
2022-08-22T07:59:48.028Z,30.70
2022-08-22T08:02:18.424Z,30.97
2022-08-22T08:04:50.346Z,30.58
2022-08-22T08:07:21.802Z,30.33
2022-08-22T08:10:01.106Z,33.35
2022-08-22T08:12:37.949Z,32.52
2022-08-22T08:15:10.325Z,33.97
2022-08-22T08:17:40.514Z,34.86
2022-08-22T08:20:12.386Z,35.59
2022-08-22T08:22:46.158Z,36.13
2022-08-22T08:25:17.443Z,35.61
2022-08-22T08:27:45.120Z,34.65
2022-08-22T08:30:21.973Z,33.21
2022-08-22T08:32:59.603Z,34.83
2022-08-22T08:36:06.151Z,34.31
2022-08-22T08:38:55.419Z,35.72
2022-08-22T08:41:59.216Z,35.52
2022-08-22T08:44:47.447Z,34.73
2022-08-22T08:47:31.188Z,35.65
2022-08-22T08:50:23.900Z,33.59
2022-08-22T08:53:25.805Z,33.87
2022-08-22T08:56:19.954Z,34.04
2022-08-22T08:59:03.829Z,35.09
2022-08-22T09:02:02.576Z,35.50
2022-08-22T09:05:06.658Z,35.10
2022-08-22T09:07:42.790Z,35.25
2022-08-22T09:10:29.372Z,36.60
2022-08-22T09:13:26.963Z,35.67
2022-08-22T09:16:04.240Z,36.55
2022-08-22T09:18:50.431Z,35.49
2022-08-22T09:21:44.217Z,38.26
2022-08-22T09:24:10.790Z,39.02
2022-08-22T09:26:52.468Z,40.52
2022-08-22T09:29:54.611Z,41.62
2022-08-22T09:32:55.754Z,42.22
2022-08-22T09:35:46.953Z,41.58
2022-08-22T09:38:27.595Z,45.34
2022-08-22T09:41:07.207Z,44.68
2022-08-22T09:44:02.923Z,43.98
2022-08-22T09:46:40.470Z,44.08
2022-08-22T09:49:26.493Z,45.20
2022-08-22T09:52:15.626Z,46.15
2022-08-22T09:55:35.548Z,45.16
2022-08-22T09:58:38.850Z,43.34
2022-08-22T10:01:11.272Z,44.04
2022-08-22T10:04:22.968Z,43.66
2022-08-22T10:06:58.519Z,43.90
2022-08-22T10:09:42.164Z,43.10
2022-08-22T10:12:24.791Z,42.74
2022-08-22T10:15:27.082Z,42.54
2022-08-22T10:18:36.535Z,41.42
2022-08-22T10:21:36.719Z,41.40
2022-08-22T10:24:25.575Z,41.69
2022-08-22T10:26:57.635Z,42.03
2022-08-22T10:29:43.418Z,43.50
2022-08-22T10:32:39.834Z,43.59
2022-08-22T10:35:18.026Z,43.57
2022-08-22T10:37:56.986Z,43.05
2022-08-22T10:40:29.353Z,42.93
2022-08-22T10:43:13.113Z,41.84
2022-08-22T10:45:47.361Z,41.65
2022-08-22T10:48:29.449Z,41.63
2022-08-22T10:51:12.239Z,40.96
2022-08-22T10:53:44.499Z,41.99
2022-08-22T10:56:52.869Z,42.90
2022-08-22T10:59:29.479Z,41.76
2022-08-22T11:02:31.580Z,42.44
2022-08-22T11:05:24.573Z,42.03
2022-08-22T11:08:00.133Z,41.45
2022-08-22T11:11:04.437Z,40.35
2022-08-22T11:13:58.395Z,39.88
2022-08-22T11:16:42.153Z,32.21
2022-08-22T11:19:15.933Z,38.97
2022-08-22T11:21:51.047Z,31.91
2022-08-22T11:24:55.688Z,32.36
2022-08-22T11:28:08.527Z,31.79
2022-08-22T11:30:58.844Z,31.65
2022-08-22T11:33:46.599Z,31.02
2022-08-22T11:36:33.020Z,31.63
2022-08-22T11:39:18.359Z,30.97
2022-08-22T11:42:12.465Z,29.48
2022-08-22T11:45:02.092Z,30.75
2022-08-22T11:47:49.889Z,31.43
2022-08-22T11:50:35.308Z,31.54
2022-08-22T11:53:54.843Z,31.75
2022-08-22T11:56:32.021Z,31.34
2022-08-22T11:58:58.746Z,30.41
2022-08-22T12:01:28.267Z,29.61
2022-08-22T12:04:29.551Z,30.47
2022-08-22T12:07:24.692Z,29.61
2022-08-22T12:10:02.359Z,29.54
2022-08-22T12:12:54.737Z,29.66
2022-08-22T12:15:30.770Z,29.34
2022-08-22T12:18:25.108Z,30.40
2022-08-22T12:21:03.370Z,29.98
2022-08-22T12:23:48.574Z,30.90
2022-08-22T12:26:16.277Z,31.46
2022-08-22T12:29:03.262Z,31.06
2022-08-22T12:31:47.149Z,32.95
2022-08-22T12:34:16.887Z,29.89
2022-08-22T12:36:52.537Z,29.84
2022-08-22T12:39:26.293Z,28.74
2022-08-22T12:42:31.115Z,30.00
2022-08-22T12:45:45.450Z,30.41
2022-08-22T12:48:32.305Z,31.04
2022-08-22T12:51:29.518Z,31.67
2022-08-22T12:54:23.876Z,30.87
2022-08-22T12:57:23.548Z,31.69
2022-08-22T12:59:58.178Z,30.72
2022-08-22T13:02:35.201Z,31.27
2022-08-22T13:05:09.215Z,31.61
2022-08-22T13:07:39.130Z,31.41
2022-08-22T13:10:14.965Z,33.06
2022-08-22T13:12:50.086Z,30.90
2022-08-22T13:15:45.152Z,31.63
2022-08-22T13:18:29.666Z,31.79
2022-08-22T13:21:04.338Z,31.05
2022-08-22T13:23:58.308Z,30.31
2022-08-22T13:26:33.597Z,30.22
2022-08-22T13:31:59.236Z,30.89
2022-08-22T13:34:53.780Z,30.18
2022-08-22T13:37:31.597Z,30.18
2022-08-22T13:40:04.116Z,29.49
2022-08-22T13:42:40.114Z,28.74
2022-08-22T13:45:23.144Z,30.72
2022-08-22T13:47:59.709Z,30.28
2022-08-22T13:50:37.476Z,30.93
2022-08-22T13:53:34.899Z,29.35
2022-08-22T13:56:15.618Z,28.99
2022-08-22T13:58:55.918Z,27.72
2022-08-22T14:01:37.724Z,28.80
2022-08-22T14:04:32.319Z,28.14
2022-08-22T14:07:02.929Z,28.22
2022-08-22T14:09:35.278Z,28.77
2022-08-22T14:12:17.261Z,29.27
2022-08-22T14:14:55.015Z,26.93
2022-08-22T14:17:33.663Z,28.47
2022-08-22T14:20:32.476Z,28.21
2022-08-22T14:23:11.266Z,27.95
2022-08-22T14:25:41.462Z,28.62
2022-08-22T14:28:27.586Z,27.46
2022-08-22T14:31:02.490Z,28.60
2022-08-22T14:33:43.554Z,30.10
2022-08-22T14:36:24.591Z,30.69
2022-08-22T14:39:10.192Z,29.37
2022-08-22T14:41:56.285Z,29.54
2022-08-22T14:44:33.974Z,29.02
2022-08-22T14:47:32.346Z,29.37
2022-08-22T14:49:58.384Z,28.32
2022-08-22T14:52:34.355Z,28.85
2022-08-22T14:55:24.138Z,27.10
2022-08-22T14:57:54.428Z,27.63
2022-08-22T15:00:36.265Z,27.17
2022-08-22T15:03:20.429Z,27.26
2022-08-22T15:06:11.466Z,27.45
2022-08-22T15:08:50.547Z,27.54
2022-08-22T15:11:17.170Z,27.74
2022-08-22T15:13:55.292Z,27.77
2022-08-22T15:16:36.722Z,26.76
2022-08-22T15:19:24.821Z,27.57
2022-08-22T15:22:03.946Z,27.62
2022-08-22T15:24:31.613Z,27.23
2022-08-22T15:26:59.500Z,26.26
2022-08-22T15:29:34.065Z,26.48
2022-08-22T15:32:05.657Z,27.34
2022-08-22T15:34:42.929Z,27.20
2022-08-22T15:37:18.658Z,28.06
2022-08-22T15:40:11.983Z,27.52
2022-08-22T15:42:51.272Z,27.71
2022-08-22T15:45:36.288Z,27.76
2022-08-22T15:48:24.547Z,28.12
2022-08-22T15:51:02.652Z,27.97
2022-08-22T15:54:00.044Z,27.75
2022-08-22T15:56:35.300Z,28.04
2022-08-22T15:59:54.217Z,27.01
2022-08-22T16:02:39.807Z,26.64
2022-08-22T16:05:09.360Z,25.81
2022-08-22T16:08:04.706Z,26.74
2022-08-22T16:10:39.350Z,26.18
2022-08-22T16:13:27.843Z,25.89
2022-08-22T16:16:17.022Z,25.08
2022-08-22T16:18:43.587Z,25.04
2022-08-22T16:21:16.505Z,25.43
2022-08-22T16:23:46.133Z,25.36
2022-08-22T16:26:19.332Z,25.45
2022-08-22T16:28:59.248Z,25.92
2022-08-22T16:31:32.765Z,25.72
2022-08-22T16:34:18.401Z,25.58
2022-08-22T16:37:03.180Z,25.48
2022-08-22T16:39:36.406Z,25.36
2022-08-22T16:42:15.104Z,25.25
2022-08-22T16:44:47.128Z,24.55
2022-08-22T16:47:13.684Z,25.08
2022-08-22T16:49:49.011Z,25.73
2022-08-22T16:52:21.486Z,25.49
2022-08-22T16:54:51.854Z,25.56
2022-08-22T16:57:59.421Z,26.45
2022-08-22T17:00:51.022Z,26.24
2022-08-22T17:03:29.542Z,26.55
2022-08-22T17:06:29.972Z,26.80
2022-08-22T17:09:44.780Z,26.60
2022-08-22T17:12:41.372Z,26.64
2022-08-22T17:15:28.748Z,26.67
2022-08-22T17:18:13.859Z,27.10
2022-08-22T17:20:46.956Z,27.32
2022-08-22T17:23:41.108Z,28.24
2022-08-22T17:26:20.122Z,28.25
2022-08-22T17:29:09.675Z,28.95
2022-08-22T17:32:00.807Z,28.35
2022-08-22T17:34:36.737Z,28.89
2022-08-22T17:37:19.896Z,29.71
2022-08-22T17:40:01.915Z,29.82
2022-08-22T17:42:40.843Z,29.86
2022-08-22T17:45:27.898Z,29.86
2022-08-22T17:48:24.778Z,30.26
2022-08-22T17:51:12.652Z,29.96
2022-08-22T17:53:47.202Z,30.32
2022-08-22T17:56:22.470Z,30.49
2022-08-22T17:59:00.714Z,30.88
2022-08-22T18:01:44.398Z,31.18
2022-08-22T18:04:27.221Z,31.06
2022-08-22T18:07:19.953Z,31.20
2022-08-22T18:09:56.602Z,31.21
2022-08-22T18:12:48.238Z,31.21
2022-08-22T18:15:45.776Z,31.96
2022-08-22T18:18:28.260Z,31.54
2022-08-22T18:21:05.637Z,32.06
2022-08-22T18:23:44.206Z,32.93
2022-08-22T18:26:35.022Z,33.43
2022-08-22T18:29:26.904Z,33.53
2022-08-22T18:32:07.386Z,34.51
2022-08-22T18:34:45.350Z,34.62
2022-08-22T18:37:30.705Z,35.39
2022-08-22T18:40:50.001Z,35.41
2022-08-22T18:43:18.445Z,35.77
2022-08-22T18:45:47.801Z,35.54
2022-08-22T18:48:54.385Z,36.17
2022-08-22T18:51:31.415Z,36.10
2022-08-22T18:54:07.987Z,36.51
2022-08-22T18:56:49.327Z,36.37
2022-08-22T18:59:15.881Z,36.29
2022-08-22T19:01:45.416Z,36.56
2022-08-22T19:04:30.639Z,36.47
2022-08-22T19:07:32.814Z,36.50
2022-08-22T19:10:17.734Z,36.97
2022-08-22T19:13:17.609Z,36.33
2022-08-22T19:16:35.146Z,36.75
2022-08-22T19:19:17.346Z,36.46
2022-08-22T19:22:14.958Z,36.14
2022-08-22T19:25:16.049Z,36.06
2022-08-22T19:28:04.639Z,35.94
2022-08-22T19:30:33.987Z,35.36
2022-08-22T19:33:08.030Z,35.66
2022-08-22T19:35:45.056Z,35.29
2022-08-22T19:38:12.491Z,35.21
2022-08-22T19:40:44.894Z,35.37
2022-08-22T19:43:35.660Z,35.14
2022-08-22T19:46:08.988Z,35.43
2022-08-22T19:48:46.323Z,35.16
2022-08-22T19:51:31.264Z,35.13
2022-08-22T19:54:14.490Z,35.02
2022-08-22T19:57:10.144Z,34.82
2022-08-22T19:59:56.894Z,34.46
2022-08-22T20:02:36.529Z,34.62
2022-08-22T20:05:19.598Z,34.31
2022-08-22T20:08:17.320Z,34.73
2022-08-22T20:11:12.147Z,34.05
2022-08-22T20:13:39.331Z,34.26
2022-08-22T20:16:14.668Z,34.48
2022-08-22T20:19:05.047Z,34.48
2022-08-22T20:21:40.741Z,34.07
2022-08-22T20:24:12.600Z,33.88
2022-08-22T20:26:57.678Z,34.38
2022-08-22T20:29:34.874Z,34.09
2022-08-22T20:32:05.087Z,33.46
2022-08-22T20:34:37.449Z,33.76
2022-08-22T20:37:27.029Z,34.35
2022-08-22T20:40:32.284Z,33.14
2022-08-22T20:43:10.875Z,32.81
2022-08-22T20:45:59.514Z,32.07
2022-08-22T20:48:35.534Z,33.29
2022-08-22T20:51:08.806Z,33.29
2022-08-22T20:53:36.999Z,33.70
2022-08-22T20:56:04.748Z,34.01
2022-08-22T20:58:39.064Z,34.11
2022-08-22T21:01:10.581Z,34.33
2022-08-22T21:03:37.180Z,34.38
2022-08-22T21:06:20.639Z,34.05
2022-08-22T21:08:49.112Z,34.04
2022-08-22T21:11:22.389Z,33.54
2022-08-22T21:13:50.472Z,33.47
2022-08-22T21:16:33.055Z,33.80
2022-08-22T21:19:00.924Z,33.16
2022-08-22T21:21:34.216Z,33.24
2022-08-22T21:24:04.585Z,33.02
2022-08-22T21:26:36.742Z,32.99
2022-08-22T21:29:07.607Z,33.35
2022-08-22T21:32:07.963Z,33.35
2022-08-22T21:34:41.512Z,34.25
2022-08-22T21:37:14.338Z,34.22
2022-08-22T21:39:46.463Z,33.42
2022-08-22T21:42:25.066Z,33.31
2022-08-22T21:44:59.240Z,33.84
2022-08-22T21:47:31.033Z,33.91
2022-08-22T21:50:15.044Z,34.14
2022-08-22T21:52:58.724Z,34.92
2022-08-22T21:55:25.408Z,34.90
2022-08-22T21:58:31.009Z,35.34
2022-08-22T22:01:28.149Z,35.66
2022-08-22T22:03:57.546Z,36.17
2022-08-22T22:06:25.046Z,35.44
2022-08-22T22:08:51.852Z,35.55
2022-08-22T22:11:18.812Z,35.98
2022-08-22T22:13:45.488Z,35.48
2022-08-22T22:16:12.754Z,34.96
2022-08-22T22:18:40.827Z,35.58
2022-08-22T22:21:08.413Z,35.54
2022-08-22T22:23:35.232Z,35.68
2022-08-22T22:26:04.824Z,35.50
2022-08-22T22:28:36.779Z,35.57
2022-08-22T22:31:05.020Z,36.47
2022-08-22T22:33:39.290Z,36.08
2022-08-22T22:36:09.940Z,37.20
2022-08-22T22:38:39.106Z,36.78
2022-08-22T22:41:06.037Z,37.24
2022-08-22T22:43:33.517Z,38.74
2022-08-22T22:46:00.197Z,38.14
2022-08-22T22:48:27.129Z,39.55
2022-08-22T22:50:54.291Z,39.49
2022-08-22T22:53:33.746Z,39.84
2022-08-22T22:56:09.267Z,40.07
2022-08-22T22:58:37.308Z,39.93
2022-08-22T23:01:15.790Z,40.50
2022-08-22T23:03:43.882Z,40.37
2022-08-22T23:06:16.170Z,40.70
2022-08-22T23:08:43.050Z,40.15
2022-08-22T23:11:16.840Z,40.86
2022-08-22T23:13:43.728Z,40.42
2022-08-22T23:16:14.485Z,40.62
2022-08-22T23:18:41.992Z,39.03
2022-08-22T23:21:24.382Z,40.36
2022-08-22T23:23:53.659Z,39.21
2022-08-22T23:26:20.268Z,39.04
2022-08-22T23:28:46.902Z,38.44
2022-08-22T23:31:27.566Z,39.00
2022-08-22T23:33:56.129Z,39.21
2022-08-22T23:36:23.953Z,38.64
2022-08-22T23:38:51.593Z,39.41
2022-08-22T23:41:19.803Z,39.61
2022-08-22T23:43:49.858Z,38.45
2022-08-22T23:46:19.171Z,38.87
2022-08-22T23:48:46.318Z,39.30
2022-08-22T23:51:23.223Z,39.40
2022-08-22T23:53:51.027Z,38.98
2022-08-22T23:56:21.113Z,39.40
2022-08-22T23:58:50.041Z,38.96
